Time,TemperatureF,DewpointF,PressureIn,WindDirection,WindDirectionDegrees,WindSpeedMPH,WindSpeedGustMPH,Humidity,HourlyPrecipIn,Conditions,Clouds,dailyrainin,SoftwareType,DateUTC
2013-01-20 00:04:00,20.6,8.9,28.92,NNW,338,14.5,22.3,60,0.00,,,0.00,WUHU216HW,2013-01-20 06:04:00,
2013-01-20 00:09:00,20.3,8.6,28.92,North,0,21.0,21.0,60,0.00,,,0.00,WUHU216HW,2013-01-20 06:09:00,
2013-01-20 00:14:00,20.1,8.4,28.92,North,0,21.6,21.6,60,0.00,,,0.00,WUHU216HW,2013-01-20 06:14:00,
2013-01-20 00:19:00,19.9,8.2,28.92,North,0,16.1,21.6,60,0.00,,,0.00,WUHU216HW,2013-01-20 06:19:00,
2013-01-20 00:24:00,19.7,8.7,28.92,North,0,20.1,20.3,62,0.00,,,0.00,WUHU216HW,2013-01-20 06:24:00,
2013-01-20 00:29:00,19.5,8.5,28.91,North,0,19.0,20.3,62,0.00,,,0.00,WUHU216HW,2013-01-20 06:29:00,
2013-01-20 00:34:00,19.5,8.9,28.90,North,0,16.5,20.5,63,0.00,,,0.00,WUHU216HW,2013-01-20 06:34:00,
2013-01-20 00:39:00,19.2,8.9,28.91,North,0,9.3,20.5,64,0.00,,,0.00,WUHU216HW,2013-01-20 06:39:00,
2013-01-20 00:44:00,19.2,8.9,28.91,North,0,9.6,16.7,64,0.00,,,0.00,WUHU216HW,2013-01-20 06:44:00,
2013-01-20 00:49:00,19.2,8.9,28.91,NNE,23,14.7,14.7,64,0.00,,,0.00,WUHU216HW,2013-01-20 06:49:00,
2013-01-20 00:54:00,19.0,9.0,28.91,North,0,13.8,15.6,65,0.00,,,0.00,WUHU216HW,2013-01-20 06:54:00,
2013-01-20 00:59:00,18.8,8.9,28.89,NNE,23,15.6,15.6,65,0.00,,,0.00,WUHU216HW,2013-01-20 06:59:00,
2013-01-20 01:04:00,18.6,8.4,28.89,NNE,23,17.2,18.1,64,0.00,,,0.00,WUHU216HW,2013-01-20 07:04:00,
2013-01-20 01:09:00,18.5,8.2,28.90,North,0,18.5,20.3,64,0.00,,,0.00,WUHU216HW,2013-01-20 07:09:00,
2013-01-20 01:14:00,18.3,7.7,28.91,North,0,18.7,20.3,63,0.00,,,0.00,WUHU216HW,2013-01-20 07:14:00,
2013-01-20 01:19:00,18.3,7.7,28.91,NNE,23,14.9,19.2,63,0.00,,,0.00,WUHU216HW,2013-01-20 07:19:00,
2013-01-20 01:24:00,17.9,7.7,28.91,North,0,9.3,19.2,64,0.00,,,0.00,WUHU216HW,2013-01-20 07:24:00,
2013-01-20 01:29:00,17.7,7.6,28.91,North,0,11.8,16.1,64,0.00,,,0.00,WUHU216HW,2013-01-20 07:29:00,
2013-01-20 01:34:00,17.7,7.2,28.91,North,0,7.3,16.1,63,0.00,,,0.00,WUHU216HW,2013-01-20 07:34:00,
2013-01-20 01:39:00,17.4,7.2,28.91,North,0,12.3,12.3,64,0.00,,,0.00,WUHU216HW,2013-01-20 07:39:00,
2013-01-20 01:44:00,17.4,7.6,28.91,NNW,338,11.6,12.3,65,0.00,,,0.00,WUHU216HW,2013-01-20 07:44:00,
2013-01-20 01:49:00,17.4,7.9,28.91,NNW,338,6.2,12.3,66,0.00,,,0.00,WUHU216HW,2013-01-20 07:49:00,
2013-01-20 01:54:00,17.4,7.9,28.92,North,0,7.8,11.4,66,0.00,,,0.00,WUHU216HW,2013-01-20 07:54:00,
2013-01-20 01:59:00,17.2,7.7,28.91,North,0,11.8,11.8,66,0.00,,,0.00,WUHU216HW,2013-01-20 07:59:00,
2013-01-20 02:04:00,17.2,7.7,28.92,NNW,338,11.1,11.8,66,0.00,,,0.00,WUHU216HW,2013-01-20 08:04:00,
2013-01-20 02:09:00,17.0,7.5,28.92,North,0,11.4,11.4,66,0.00,,,0.00,WUHU216HW,2013-01-20 08:09:00,
2013-01-20 02:15:00,16.8,7.7,28.92,North,0,5.8,11.4,67,0.00,,,0.00,WUHU216HW,2013-01-20 08:15:00,
2013-01-20 02:20:00,16.8,7.4,28.91,North,0,14.0,14.0,66,0.00,,,0.00,WUHU216HW,2013-01-20 08:20:00,
2013-01-20 02:25:00,16.8,7.7,28.91,North,0,14.7,14.7,67,0.00,,,0.00,WUHU216HW,2013-01-20 08:25:00,
2013-01-20 02:30:00,16.8,7.7,28.91,North,0,12.5,14.7,67,0.00,,,0.00,WUHU216HW,2013-01-20 08:30:00,
2013-01-20 02:35:00,16.8,7.7,28.91,North,0,8.9,14.7,67,0.00,,,0.00,WUHU216HW,2013-01-20 08:35:00,
2013-01-20 02:40:00,16.8,7.7,28.91,North,0,10.9,11.4,67,0.00,,,0.00,WUHU216HW,2013-01-20 08:40:00,
2013-01-20 02:45:00,16.7,7.5,28.91,North,0,8.7,11.4,67,0.00,,,0.00,WUHU216HW,2013-01-20 08:45:00,
2013-01-20 02:50:00,16.7,7.5,28.91,North,0,12.5,12.5,67,0.00,,,0.00,WUHU216HW,2013-01-20 08:50:00,
2013-01-20 02:55:00,16.5,7.3,28.91,North,0,12.9,12.9,67,0.00,,,0.00,WUHU216HW,2013-01-20 08:55:00,
2013-01-20 03:00:00,16.3,6.8,28.91,North,0,10.7,12.9,66,0.00,,,0.00,WUHU216HW,2013-01-20 09:00:00,
2013-01-20 03:05:00,16.3,6.8,28.91,North,0,8.5,11.6,66,0.00,,,0.00,WUHU216HW,2013-01-20 09:05:00,
2013-01-20 03:10:00,16.3,7.2,28.92,NNE,23,10.0,10.7,67,0.00,,,0.00,WUHU216HW,2013-01-20 09:10:00,
2013-01-20 03:15:00,16.1,6.6,28.91,North,0,14.7,14.7,66,0.00,,,0.00,WUHU216HW,2013-01-20 09:15:00,
2013-01-20 03:20:00,15.9,6.5,28.91,NNW,338,12.9,14.7,66,0.00,,,0.00,WUHU216HW,2013-01-20 09:20:00,
2013-01-20 03:25:00,15.9,6.5,28.91,North,0,8.9,14.7,66,0.00,,,0.00,WUHU216HW,2013-01-20 09:25:00,
2013-01-20 03:30:00,15.9,6.5,28.91,North,0,7.3,12.9,66,0.00,,,0.00,WUHU216HW,2013-01-20 09:30:00,
2013-01-20 03:35:00,15.9,6.5,28.91,North,0,8.0,8.0,66,0.00,,,0.00,WUHU216HW,2013-01-20 09:35:00,
2013-01-20 03:40:00,15.8,6.3,28.91,NNE,23,8.5,8.5,66,0.00,,,0.00,WUHU216HW,2013-01-20 09:40:00,
2013-01-20 03:45:00,15.8,6.6,28.91,North,0,7.3,9.3,67,0.00,,,0.00,WUHU216HW,2013-01-20 09:45:00,
2013-01-20 03:50:00,15.6,6.1,28.91,North,0,9.1,9.3,66,0.00,,,0.00,WUHU216HW,2013-01-20 09:50:00,
2013-01-20 03:55:00,15.6,6.1,28.90,NNE,23,6.7,10.5,66,0.00,,,0.00,WUHU216HW,2013-01-20 09:55:00,
2013-01-20 04:00:00,15.6,6.1,28.91,North,0,7.6,10.5,66,0.00,,,0.00,WUHU216HW,2013-01-20 10:00:00,
2013-01-20 04:05:00,15.4,6.0,28.90,NNW,338,7.6,9.3,66,0.00,,,0.00,WUHU216HW,2013-01-20 10:05:00,
2013-01-20 04:11:00,15.2,5.8,28.91,North,0,7.3,10.0,66,0.00,,,0.00,WUHU216HW,2013-01-20 10:11:00,
2013-01-20 04:16:00,15.0,5.6,28.90,North,0,8.0,10.0,66,0.00,,,0.00,WUHU216HW,2013-01-20 10:16:00,
2013-01-20 04:21:00,15.0,5.6,28.91,North,0,6.7,8.5,66,0.00,,,0.00,WUHU216HW,2013-01-20 10:21:00,
2013-01-20 04:26:00,15.0,5.6,28.90,North,0,7.6,8.0,66,0.00,,,0.00,WUHU216HW,2013-01-20 10:26:00,
2013-01-20 04:31:00,14.9,5.5,28.90,North,0,7.3,7.6,66,0.00,,,0.00,WUHU216HW,2013-01-20 10:31:00,
2013-01-20 04:36:00,14.9,5.5,28.90,North,0,6.9,7.6,66,0.00,,,0.00,WUHU216HW,2013-01-20 10:36:00,
2013-01-20 04:41:00,14.7,5.3,28.90,NNW,338,7.3,9.8,66,0.00,,,0.00,WUHU216HW,2013-01-20 10:41:00,
2013-01-20 04:46:00,14.7,5.3,28.90,North,0,5.5,9.8,66,0.00,,,0.00,WUHU216HW,2013-01-20 10:46:00,
2013-01-20 04:51:00,14.7,5.3,28.90,North,0,9.8,9.8,66,0.00,,,0.00,WUHU216HW,2013-01-20 10:51:00,
2013-01-20 04:56:00,14.5,4.8,28.90,North,0,7.1,9.8,65,0.00,,,0.00,WUHU216HW,2013-01-20 10:56:00,
2013-01-20 05:01:00,14.5,4.8,28.89,North,0,6.9,7.8,65,0.00,,,0.00,WUHU216HW,2013-01-20 11:01:00,
2013-01-20 05:06:00,14.3,4.6,28.90,North,0,8.2,8.7,65,0.00,,,0.00,WUHU216HW,2013-01-20 11:06:00,
2013-01-20 05:11:00,14.3,5.0,28.90,North,0,10.2,10.2,66,0.00,,,0.00,WUHU216HW,2013-01-20 11:11:00,
2013-01-20 05:16:00,14.3,5.0,28.90,North,0,8.2,10.2,66,0.00,,,0.00,WUHU216HW,2013-01-20 11:16:00,
2013-01-20 05:21:00,14.1,4.8,28.90,North,0,10.5,10.5,66,0.00,,,0.00,WUHU216HW,2013-01-20 11:21:00,
2013-01-20 05:26:00,14.1,4.8,28.90,North,0,7.8,10.5,66,0.00,,,0.00,WUHU216HW,2013-01-20 11:26:00,
2013-01-20 05:32:00,14.1,4.8,28.90,North,0,6.4,7.8,66,0.00,,,0.00,WUHU216HW,2013-01-20 11:32:00,
2013-01-20 05:37:00,14.1,4.8,28.90,North,0,1.5,7.8,66,0.00,,,0.00,WUHU216HW,2013-01-20 11:37:00,
2013-01-20 05:42:00,14.1,4.8,28.90,North,0,5.3,6.4,66,0.00,,,0.00,WUHU216HW,2013-01-20 11:42:00,
2013-01-20 05:47:00,13.8,4.5,28.90,North,0,6.2,6.2,66,0.00,,,0.00,WUHU216HW,2013-01-20 11:47:00,
2013-01-20 05:52:00,13.8,4.5,28.91,North,0,0.8,6.2,66,0.00,,,0.00,WUHU216HW,2013-01-20 11:52:00,
2013-01-20 05:57:00,13.8,4.8,28.90,North,0,7.6,7.6,67,0.00,,,0.00,WUHU216HW,2013-01-20 11:57:00,
2013-01-20 06:02:00,13.6,4.6,28.90,North,0,3.3,7.6,67,0.00,,,0.00,WUHU216HW,2013-01-20 12:02:00,
2013-01-20 06:07:00,13.6,4.6,28.90,North,0,5.1,5.8,67,0.00,,,0.00,WUHU216HW,2013-01-20 12:07:00,
2013-01-20 06:12:00,13.6,4.6,28.90,North,0,5.3,5.3,67,0.00,,,0.00,WUHU216HW,2013-01-20 12:12:00,
2013-01-20 06:17:00,13.6,4.6,28.90,North,0,6.4,7.1,67,0.00,,,0.00,WUHU216HW,2013-01-20 12:17:00,
2013-01-20 06:23:00,13.6,5.0,28.89,North,0,4.6,7.1,68,0.00,,,0.00,WUHU216HW,2013-01-20 12:23:00,
2013-01-20 06:28:00,13.6,5.0,28.90,North,0,7.6,7.6,68,0.00,,,0.00,WUHU216HW,2013-01-20 12:28:00,
2013-01-20 06:33:00,13.2,4.6,28.90,North,0,2.4,7.6,68,0.00,,,0.00,WUHU216HW,2013-01-20 12:33:00,
2013-01-20 06:38:00,13.2,4.6,28.90,North,0,0.6,5.5,68,0.00,,,0.00,WUHU216HW,2013-01-20 12:38:00,
2013-01-20 06:43:00,13.2,4.6,28.90,North,0,0.0,5.5,68,0.00,,,0.00,WUHU216HW,2013-01-20 12:43:00,
2013-01-20 06:48:00,13.1,4.4,28.90,North,0,6.7,6.7,68,0.00,,,0.00,WUHU216HW,2013-01-20 12:48:00,
2013-01-20 06:53:00,12.9,4.6,28.90,North,0,6.0,6.7,69,0.00,,,0.00,WUHU216HW,2013-01-20 12:53:00,
2013-01-20 06:58:00,12.9,4.6,28.90,North,0,0.0,6.7,69,0.00,,,0.00,WUHU216HW,2013-01-20 12:58:00,
2013-01-20 07:03:00,12.9,4.6,28.91,North,0,0.6,5.5,69,0.00,,,0.00,WUHU216HW,2013-01-20 13:03:00,
2013-01-20 07:08:00,12.9,4.6,28.91,North,0,0.0,5.5,69,0.00,,,0.00,WUHU216HW,2013-01-20 13:08:00,
2013-01-20 07:13:00,12.9,4.6,28.91,NNE,23,7.1,7.1,69,0.00,,,0.00,WUHU216HW,2013-01-20 13:13:00,
2013-01-20 07:18:00,12.9,4.6,28.91,NNE,23,6.2,7.1,69,0.00,,,0.00,WUHU216HW,2013-01-20 13:18:00,
2013-01-20 07:23:00,13.1,4.8,28.92,North,0,5.5,7.1,69,0.00,,,0.00,WUHU216HW,2013-01-20 13:23:00,
2013-01-20 07:28:00,13.2,5.3,28.92,NNE,23,5.3,6.7,70,0.00,,,0.00,WUHU216HW,2013-01-20 13:28:00,
2013-01-20 07:33:00,13.2,5.3,28.91,North,0,7.1,7.1,70,0.00,,,0.00,WUHU216HW,2013-01-20 13:33:00,
2013-01-20 07:38:00,13.2,5.0,28.91,NNE,23,4.6,7.1,69,0.00,,,0.00,WUHU216HW,2013-01-20 13:38:00,
2013-01-20 07:43:00,13.2,5.0,28.91,NNE,23,5.8,6.7,69,0.00,,,0.00,WUHU216HW,2013-01-20 13:43:00,
2013-01-20 07:49:00,13.2,5.0,28.91,NE,45,7.1,7.1,69,0.00,,,0.00,WUHU216HW,2013-01-20 13:49:00,
2013-01-20 07:54:00,13.2,5.0,28.92,NE,45,1.1,7.1,69,0.00,,,0.00,WUHU216HW,2013-01-20 13:54:00,
2013-01-20 07:59:00,13.6,5.3,28.92,NNE,23,7.1,8.7,69,0.00,,,0.00,WUHU216HW,2013-01-20 13:59:00,
2013-01-20 08:04:00,13.6,5.3,28.91,NE,45,2.2,8.7,69,0.00,,,0.00,WUHU216HW,2013-01-20 14:04:00,
2013-01-20 08:09:00,13.6,5.3,28.91,NE,45,0.0,6.7,69,0.00,,,0.00,WUHU216HW,2013-01-20 14:09:00,
2013-01-20 08:14:00,13.6,5.7,28.91,NNE,23,4.6,7.6,70,0.00,,,0.00,WUHU216HW,2013-01-20 14:14:00,
2013-01-20 08:19:00,13.8,5.9,28.91,NE,45,2.2,7.6,70,0.00,,,0.00,WUHU216HW,2013-01-20 14:19:00,
2013-01-20 08:24:00,13.8,5.9,28.91,NNE,23,6.4,6.4,70,0.00,,,0.00,WUHU216HW,2013-01-20 14:24:00,
2013-01-20 08:29:00,13.8,5.9,28.92,NNE,23,5.8,6.4,70,0.00,,,0.00,WUHU216HW,2013-01-20 14:29:00,
2013-01-20 08:34:00,14.0,6.0,28.92,NNE,23,7.6,8.7,70,0.00,,,0.00,WUHU216HW,2013-01-20 14:34:00,
2013-01-20 08:40:00,14.1,6.2,28.93,North,0,7.8,8.7,70,0.00,,,0.00,WUHU216HW,2013-01-20 14:40:00,
2013-01-20 08:45:00,14.1,6.2,28.93,NNE,23,8.7,8.7,70,0.00,,,0.00,WUHU216HW,2013-01-20 14:45:00,
2013-01-20 08:50:00,14.3,6.0,28.93,NNE,23,10.9,10.9,69,0.00,,,0.00,WUHU216HW,2013-01-20 14:50:00,
2013-01-20 08:55:00,14.5,6.2,28.93,NNE,23,6.9,10.9,69,0.00,,,0.00,WUHU216HW,2013-01-20 14:55:00,
2013-01-20 09:00:00,14.5,6.2,28.94,NNE,23,11.6,11.6,69,0.00,,,0.00,WUHU216HW,2013-01-20 15:00:00,
2013-01-20 09:05:00,14.5,5.8,28.93,NNE,23,7.3,11.6,68,0.00,,,0.00,WUHU216HW,2013-01-20 15:05:00,
2013-01-20 09:10:00,14.7,6.0,28.93,NNE,23,7.6,11.6,68,0.00,,,0.00,WUHU216HW,2013-01-20 15:10:00,
2013-01-20 09:15:00,14.9,5.8,28.93,NNE,23,6.4,8.7,67,0.00,,,0.00,WUHU216HW,2013-01-20 15:15:00,
2013-01-20 09:20:00,15.0,6.0,28.93,North,0,9.8,9.8,67,0.00,,,0.00,WUHU216HW,2013-01-20 15:20:00,
2013-01-20 09:25:00,15.4,6.3,28.93,NE,45,8.5,9.8,67,0.00,,,0.00,WUHU216HW,2013-01-20 15:25:00,
2013-01-20 09:30:00,15.6,6.1,28.93,NNE,23,7.3,8.7,66,0.00,,,0.00,WUHU216HW,2013-01-20 15:30:00,
2013-01-20 09:35:00,15.6,6.5,28.92,NNE,23,10.9,16.5,67,0.00,,,0.00,WUHU216HW,2013-01-20 15:35:00,
2013-01-20 09:40:00,15.6,6.1,28.93,NE,45,12.0,16.5,66,0.00,,,0.00,WUHU216HW,2013-01-20 15:40:00,
2013-01-20 09:45:00,15.8,6.3,28.93,NNE,23,8.7,12.0,66,0.00,,,0.00,WUHU216HW,2013-01-20 15:45:00,
2013-01-20 09:51:00,15.9,6.5,28.92,NE,45,9.3,11.1,66,0.00,,,0.00,WUHU216HW,2013-01-20 15:51:00,
2013-01-20 09:56:00,16.1,6.6,28.93,NNE,23,12.7,12.7,66,0.00,,,0.00,WUHU216HW,2013-01-20 15:56:00,
2013-01-20 10:01:00,16.3,6.8,28.94,NE,45,9.3,12.7,66,0.00,,,0.00,WUHU216HW,2013-01-20 16:01:00,
2013-01-20 10:06:00,16.5,6.7,28.94,NE,45,9.1,10.7,65,0.00,,,0.00,WUHU216HW,2013-01-20 16:06:00,
2013-01-20 10:11:00,16.7,6.8,28.94,NNE,23,9.3,10.7,65,0.00,,,0.00,WUHU216HW,2013-01-20 16:11:00,
2013-01-20 10:16:00,16.8,6.7,28.95,North,0,13.6,14.5,64,0.00,,,0.00,WUHU216HW,2013-01-20 16:16:00,
2013-01-20 10:21:00,16.8,6.3,28.96,NNE,23,11.4,14.5,63,0.00,,,0.00,WUHU216HW,2013-01-20 16:21:00,
2013-01-20 10:26:00,16.8,6.0,28.96,NE,45,10.7,13.6,62,0.00,,,0.00,WUHU216HW,2013-01-20 16:26:00,
2013-01-20 10:31:00,17.2,6.7,28.96,NNE,23,9.1,12.7,63,0.00,,,0.00,WUHU216HW,2013-01-20 16:31:00,
2013-01-20 10:36:00,17.2,6.7,28.97,North,0,12.0,12.7,63,0.00,,,0.00,WUHU216HW,2013-01-20 16:36:00,
2013-01-20 10:41:00,17.2,6.4,28.97,NNE,23,9.6,12.0,62,0.00,,,0.00,WUHU216HW,2013-01-20 16:41:00,
2013-01-20 10:46:00,17.2,6.7,28.97,North,0,7.1,9.6,63,0.00,,,0.00,WUHU216HW,2013-01-20 16:46:00,
2013-01-20 10:51:00,17.2,6.7,28.97,NNE,23,10.2,10.2,63,0.00,,,0.00,WUHU216HW,2013-01-20 16:51:00,
2013-01-20 10:56:00,17.4,6.9,28.97,NNE,23,3.8,10.2,63,0.00,,,0.00,WUHU216HW,2013-01-20 16:56:00,
2013-01-20 11:01:00,17.4,6.9,28.97,NNE,23,7.8,10.2,63,0.00,,,0.00,WUHU216HW,2013-01-20 17:01:00,
2013-01-20 11:06:00,17.7,6.9,28.98,North,0,8.5,8.5,62,0.00,,,0.00,WUHU216HW,2013-01-20 17:06:00,
2013-01-20 11:11:00,17.9,7.0,28.98,NNE,23,11.8,11.8,62,0.00,,,0.00,WUHU216HW,2013-01-20 17:11:00,
2013-01-20 11:16:00,17.9,6.7,28.98,North,0,5.3,11.8,61,0.00,,,0.00,WUHU216HW,2013-01-20 17:16:00,
2013-01-20 11:21:00,18.1,6.9,28.98,North,0,10.2,11.8,61,0.00,,,0.00,WUHU216HW,2013-01-20 17:21:00,
2013-01-20 11:26:00,18.3,7.0,28.99,NNE,23,11.6,11.6,61,0.00,,,0.00,WUHU216HW,2013-01-20 17:26:00,
2013-01-20 11:31:00,18.3,6.7,28.99,North,0,9.1,11.6,60,0.00,,,0.00,WUHU216HW,2013-01-20 17:31:00,
2013-01-20 11:36:00,18.3,6.7,28.99,North,0,7.3,13.8,60,0.00,,,0.00,WUHU216HW,2013-01-20 17:36:00,
2013-01-20 11:41:00,18.3,6.7,28.99,NNW,338,11.8,14.5,60,0.00,,,0.00,WUHU216HW,2013-01-20 17:41:00,
2013-01-20 11:46:00,18.5,6.4,28.99,NNE,23,10.2,14.5,59,0.00,,,0.00,WUHU216HW,2013-01-20 17:46:00,
2013-01-20 11:51:00,18.3,6.3,28.99,North,0,10.0,14.0,59,0.00,,,0.00,WUHU216HW,2013-01-20 17:51:00,
2013-01-20 11:56:00,18.3,6.3,28.99,North,0,11.4,14.0,59,0.00,,,0.00,WUHU216HW,2013-01-20 17:56:00,
2013-01-20 12:02:00,18.3,6.3,28.98,NNE,23,8.5,14.5,59,0.00,,,0.00,WUHU216HW,2013-01-20 18:02:00,
2013-01-20 12:07:00,18.5,6.4,28.98,North,0,13.4,14.9,59,0.00,,,0.00,WUHU216HW,2013-01-20 18:07:00,
2013-01-20 12:12:00,18.5,6.4,28.98,North,0,8.9,14.9,59,0.00,,,0.00,WUHU216HW,2013-01-20 18:12:00,
2013-01-20 12:17:00,18.6,6.6,28.98,North,0,6.9,13.4,59,0.00,,,0.00,WUHU216HW,2013-01-20 18:17:00,
2013-01-20 12:22:00,18.8,6.4,28.98,North,0,7.8,14.9,58,0.00,,,0.00,WUHU216HW,2013-01-20 18:22:00,
2013-01-20 12:27:00,19.0,6.1,28.97,NNE,23,11.1,14.9,57,0.00,,,0.00,WUHU216HW,2013-01-20 18:27:00,
2013-01-20 12:32:00,19.0,6.1,28.97,North,0,6.7,11.1,57,0.00,,,0.00,WUHU216HW,2013-01-20 18:32:00,
2013-01-20 12:37:00,18.6,5.8,28.97,North,0,11.6,11.6,57,0.00,,,0.00,WUHU216HW,2013-01-20 18:37:00,
2013-01-20 12:42:00,18.6,5.8,28.96,North,0,10.0,12.7,57,0.00,,,0.00,WUHU216HW,2013-01-20 18:42:00,
2013-01-20 12:47:00,18.6,5.8,28.96,NNW,338,7.1,12.7,57,0.00,,,0.00,WUHU216HW,2013-01-20 18:47:00,
2013-01-20 12:52:00,18.5,5.7,28.96,North,0,7.1,10.7,57,0.00,,,0.00,WUHU216HW,2013-01-20 18:52:00,
2013-01-20 12:57:00,18.6,5.8,28.96,NNE,23,6.7,9.3,57,0.00,,,0.00,WUHU216HW,2013-01-20 18:57:00,
2013-01-20 13:02:00,18.5,5.7,28.96,North,0,6.4,9.3,57,0.00,,,0.00,WUHU216HW,2013-01-20 19:02:00,
2013-01-20 13:07:00,18.5,5.7,28.95,NNE,23,6.0,6.9,57,0.00,,,0.00,WUHU216HW,2013-01-20 19:07:00,
2013-01-20 13:12:00,18.5,5.8,28.95,North,0,6.7,8.7,57,0.00,,,0.00,WUHU216HW,2013-01-20 19:12:00,
2013-01-20 13:17:00,18.5,5.7,28.95,North,0,10.2,10.2,57,0.00,,,0.00,WUHU216HW,2013-01-20 19:17:00,
2013-01-20 13:22:00,18.6,5.8,28.95,North,0,0.0,10.2,57,0.00,,,0.00,WUHU216HW,2013-01-20 19:22:00,
2013-01-20 13:27:00,18.6,5.8,28.95,NNW,338,3.1,10.2,57,0.00,,,0.00,WUHU216HW,2013-01-20 19:27:00,
2013-01-20 13:32:00,18.8,6.4,28.95,NNW,338,7.1,8.5,58,0.00,,,0.00,WUHU216HW,2013-01-20 19:32:00,
2013-01-20 13:37:00,19.0,6.1,28.95,NNW,338,6.2,8.5,57,0.00,,,0.00,WUHU216HW,2013-01-20 19:37:00,
2013-01-20 13:42:00,19.0,6.5,28.95,NNW,338,12.9,12.9,58,0.00,,,0.00,WUHU216HW,2013-01-20 19:42:00,
2013-01-20 13:47:00,19.0,6.5,28.95,North,0,9.3,12.9,58,0.00,,,0.00,WUHU216HW,2013-01-20 19:47:00,
2013-01-20 13:52:00,19.0,6.5,28.95,North,0,17.4,17.4,58,0.00,,,0.00,WUHU216HW,2013-01-20 19:52:00,
2013-01-20 13:57:00,19.0,6.1,28.94,North,0,11.6,17.4,57,0.00,,,0.00,WUHU216HW,2013-01-20 19:57:00,
2013-01-20 14:02:00,19.0,6.1,28.95,North,0,10.2,14.7,57,0.00,,,0.00,WUHU216HW,2013-01-20 20:02:00,
2013-01-20 14:08:00,19.0,6.1,28.95,NNW,338,10.2,11.6,57,0.00,,,0.00,WUHU216HW,2013-01-20 20:08:00,
2013-01-20 14:13:00,19.0,6.1,28.95,North,0,12.3,12.3,57,0.00,,,0.00,WUHU216HW,2013-01-20 20:13:00,
2013-01-20 14:18:00,19.0,6.1,28.94,NNW,338,13.4,17.2,57,0.00,,,0.00,WUHU216HW,2013-01-20 20:18:00,
2013-01-20 14:23:00,19.0,6.1,28.94,NNW,338,10.7,17.2,57,0.00,,,0.00,WUHU216HW,2013-01-20 20:23:00,
2013-01-20 14:28:00,19.2,6.7,28.94,North,0,12.0,14.3,58,0.00,,,0.00,WUHU216HW,2013-01-20 20:28:00,
2013-01-20 14:33:00,19.2,6.7,28.95,North,0,12.0,12.0,58,0.00,,,0.00,WUHU216HW,2013-01-20 20:33:00,
2013-01-20 14:38:00,19.2,6.7,28.95,North,0,16.1,16.1,58,0.00,,,0.00,WUHU216HW,2013-01-20 20:38:00,
2013-01-20 14:43:00,19.2,6.7,28.96,North,0,10.0,16.1,58,0.00,,,0.00,WUHU216HW,2013-01-20 20:43:00,
2013-01-20 14:48:00,19.2,6.7,28.96,North,0,14.7,14.7,58,0.00,,,0.00,WUHU216HW,2013-01-20 20:48:00,
2013-01-20 14:53:00,19.2,6.3,28.95,NNW,338,16.1,16.1,57,0.00,,,0.00,WUHU216HW,2013-01-20 20:53:00,
2013-01-20 14:58:00,19.2,6.3,28.95,North,0,13.8,16.1,57,0.00,,,0.00,WUHU216HW,2013-01-20 20:58:00,
2013-01-20 15:03:00,19.2,6.3,28.96,North,0,14.0,16.1,57,0.00,,,0.00,WUHU216HW,2013-01-20 21:03:00,
2013-01-20 15:08:00,19.2,5.9,28.96,North,0,12.7,14.7,56,0.00,,,0.00,WUHU216HW,2013-01-20 21:08:00,
2013-01-20 15:13:00,19.2,5.9,28.96,North,0,15.8,17.6,56,0.00,,,0.00,WUHU216HW,2013-01-20 21:13:00,
2013-01-20 15:18:00,19.2,5.9,28.95,North,0,14.7,17.6,56,0.00,,,0.00,WUHU216HW,2013-01-20 21:18:00,
2013-01-20 15:23:00,19.2,5.9,28.95,North,0,11.6,15.8,56,0.00,,,0.00,WUHU216HW,2013-01-20 21:23:00,
2013-01-20 15:28:00,19.0,6.1,28.95,North,0,13.6,14.5,57,0.00,,,0.00,WUHU216HW,2013-01-20 21:28:00,
2013-01-20 15:33:00,19.0,6.1,28.95,North,0,11.6,13.6,57,0.00,,,0.00,WUHU216HW,2013-01-20 21:33:00,
2013-01-20 15:38:00,19.0,6.5,28.96,North,0,17.4,17.4,58,0.00,,,0.00,WUHU216HW,2013-01-20 21:38:00,
2013-01-20 15:43:00,18.8,6.4,28.96,North,0,12.0,17.4,58,0.00,,,0.00,WUHU216HW,2013-01-20 21:43:00,
2013-01-20 15:48:00,18.8,6.8,28.95,NNW,338,13.4,17.4,59,0.00,,,0.00,WUHU216HW,2013-01-20 21:48:00,
2013-01-20 15:54:00,18.5,6.4,28.95,NNE,23,12.7,16.7,59,0.00,,,0.00,WUHU216HW,2013-01-20 21:54:00,
2013-01-20 15:59:00,18.5,6.8,28.95,North,0,13.1,13.1,60,0.00,,,0.00,WUHU216HW,2013-01-20 21:59:00,
2013-01-20 16:04:00,18.5,7.2,28.95,NNE,23,8.0,13.1,61,0.00,,,0.00,WUHU216HW,2013-01-20 22:04:00,
2013-01-20 16:09:00,18.5,7.5,28.95,North,0,6.4,13.1,62,0.00,,,0.00,WUHU216HW,2013-01-20 22:09:00,
2013-01-20 16:14:00,18.3,7.4,28.95,NNW,338,12.0,12.0,62,0.00,,,0.00,WUHU216HW,2013-01-20 22:14:00,
2013-01-20 16:19:00,18.3,7.7,28.95,North,0,11.1,14.3,63,0.00,,,0.00,WUHU216HW,2013-01-20 22:19:00,
2013-01-20 16:24:00,18.3,8.0,28.96,North,0,13.6,14.3,64,0.00,,,0.00,WUHU216HW,2013-01-20 22:24:00,
2013-01-20 16:29:00,18.1,7.9,28.96,NNW,338,10.5,13.6,64,0.00,,,0.00,WUHU216HW,2013-01-20 22:29:00,
2013-01-20 16:34:00,18.1,8.2,28.96,North,0,8.7,17.6,65,0.00,,,0.00,WUHU216HW,2013-01-20 22:34:00,
2013-01-20 16:39:00,18.1,7.9,28.95,NNW,338,9.8,17.6,64,0.00,,,0.00,WUHU216HW,2013-01-20 22:39:00,
2013-01-20 16:44:00,17.9,8.1,28.95,NNW,338,14.3,14.3,65,0.00,,,0.00,WUHU216HW,2013-01-20 22:44:00,
2013-01-20 16:49:00,17.7,7.9,28.95,North,0,10.0,16.5,65,0.00,,,0.00,WUHU216HW,2013-01-20 22:49:00,
2013-01-20 16:54:00,17.7,8.2,28.96,North,0,16.7,16.7,66,0.00,,,0.00,WUHU216HW,2013-01-20 22:54:00,
2013-01-20 16:59:00,17.7,8.2,28.96,NNW,338,9.8,16.7,66,0.00,,,0.00,WUHU216HW,2013-01-20 22:59:00,
2013-01-20 17:05:00,17.7,8.2,28.96,NNW,338,17.4,17.4,66,0.00,,,0.00,WUHU216HW,2013-01-20 23:05:00,
2013-01-20 17:10:00,17.7,8.2,28.96,NNW,338,8.7,17.4,66,0.00,,,0.00,WUHU216HW,2013-01-20 23:10:00,
2013-01-20 17:15:00,17.4,7.9,28.96,North,0,10.9,17.4,66,0.00,,,0.00,WUHU216HW,2013-01-20 23:15:00,
2013-01-20 17:20:00,17.4,8.2,28.96,North,0,7.1,14.9,67,0.00,,,0.00,WUHU216HW,2013-01-20 23:20:00,
2013-01-20 17:25:00,17.2,8.1,28.96,NNW,338,6.4,12.3,67,0.00,,,0.00,WUHU216HW,2013-01-20 23:25:00,
2013-01-20 17:30:00,17.2,8.1,28.96,North,0,9.1,12.3,67,0.00,,,0.00,WUHU216HW,2013-01-20 23:30:00,
2013-01-20 17:35:00,16.8,7.7,28.96,North,0,7.1,9.8,67,0.00,,,0.00,WUHU216HW,2013-01-20 23:35:00,
2013-01-20 17:40:00,16.7,7.5,28.96,North,0,4.0,9.1,67,0.00,,,0.00,WUHU216HW,2013-01-20 23:40:00,
2013-01-20 17:45:00,16.5,7.3,28.97,North,0,6.2,7.8,67,0.00,,,0.00,WUHU216HW,2013-01-20 23:45:00,
2013-01-20 17:50:00,16.3,7.2,28.97,NNW,338,10.5,10.5,67,0.00,,,0.00,WUHU216HW,2013-01-20 23:50:00,
2013-01-20 17:55:00,16.3,7.5,28.98,NNW,338,11.8,13.8,68,0.00,,,0.00,WUHU216HW,2013-01-20 23:55:00,
2013-01-20 18:00:00,16.1,7.7,28.98,NNW,338,7.3,13.8,69,0.00,,,0.00,WUHU216HW,2013-01-21 00:00:00,
2013-01-20 18:06:00,15.9,7.5,28.98,NNW,338,5.3,11.8,69,0.00,,,0.00,WUHU216HW,2013-01-21 00:06:00,
2013-01-20 18:11:00,15.8,7.3,28.98,NNW,338,7.1,9.6,69,0.00,,,0.00,WUHU216HW,2013-01-21 00:11:00,
2013-01-20 18:16:00,15.6,7.1,28.98,North,0,6.7,9.6,69,0.00,,,0.00,WUHU216HW,2013-01-21 00:16:00,
2013-01-20 18:21:00,15.6,7.1,28.98,North,0,6.0,7.1,69,0.00,,,0.00,WUHU216HW,2013-01-21 00:21:00,
2013-01-20 18:26:00,15.4,7.0,28.98,NNW,338,6.2,7.1,69,0.00,,,0.00,WUHU216HW,2013-01-21 00:26:00,
2013-01-20 18:31:00,15.2,6.8,28.98,NNW,338,6.7,7.1,69,0.00,,,0.00,WUHU216HW,2013-01-21 00:31:00,
2013-01-20 18:36:00,15.0,6.7,28.98,NNW,338,7.6,7.6,69,0.00,,,0.00,WUHU216HW,2013-01-21 00:36:00,
2013-01-20 18:42:00,15.0,7.0,28.98,NNW,338,7.3,9.6,70,0.00,,,0.00,WUHU216HW,2013-01-21 00:42:00,
2013-01-20 18:47:00,14.7,6.7,28.98,NNW,338,6.0,9.6,70,0.00,,,0.00,WUHU216HW,2013-01-21 00:47:00,
2013-01-20 18:52:00,14.7,6.7,28.98,NNW,338,5.8,7.8,70,0.00,,,0.00,WUHU216HW,2013-01-21 00:52:00,
2013-01-20 18:57:00,14.7,6.7,28.99,NNW,338,0.0,6.0,70,0.00,,,0.00,WUHU216HW,2013-01-21 00:57:00,
2013-01-20 19:03:00,14.3,6.4,28.98,NNW,338,0.0,5.1,70,0.00,,,0.00,WUHU216HW,2013-01-21 01:03:00,
2013-01-20 19:08:00,14.1,6.2,28.97,NNW,338,0.0,0.0,70,0.00,,,0.00,WUHU216HW,2013-01-21 01:08:00,
2013-01-20 19:13:00,13.8,5.9,28.97,NNW,338,0.0,0.0,70,0.00,,,0.00,WUHU216HW,2013-01-21 01:13:00,
2013-01-20 19:18:00,13.8,5.9,28.97,NNW,338,0.0,0.0,70,0.00,,,0.00,WUHU216HW,2013-01-21 01:18:00,
2013-01-20 19:23:00,13.6,5.7,28.97,NNW,338,0.0,0.0,70,0.00,,,0.00,WUHU216HW,2013-01-21 01:23:00,
2013-01-20 19:28:00,13.2,5.3,28.97,NNW,338,0.0,0.0,70,0.00,,,0.00,WUHU216HW,2013-01-21 01:28:00,
2013-01-20 19:33:00,13.2,5.3,28.98,NNW,338,0.0,0.0,70,0.00,,,0.00,WUHU216HW,2013-01-21 01:33:00,
2013-01-20 19:38:00,12.9,5.2,28.97,NNW,338,0.0,0.0,71,0.00,,,0.00,WUHU216HW,2013-01-21 01:38:00,
2013-01-20 19:43:00,12.7,5.1,28.97,NNW,338,0.0,0.0,71,0.00,,,0.00,WUHU216HW,2013-01-21 01:43:00,
2013-01-20 19:48:00,12.7,5.1,28.97,NNW,338,0.0,0.0,71,0.00,,,0.00,WUHU216HW,2013-01-21 01:48:00,
2013-01-20 19:53:00,12.5,5.2,28.97,NNW,338,0.0,0.0,72,0.00,,,0.00,WUHU216HW,2013-01-21 01:53:00,
2013-01-20 19:58:00,12.5,5.2,28.97,NNW,338,0.0,0.0,72,0.00,,,0.00,WUHU216HW,2013-01-21 01:58:00,
2013-01-20 20:03:00,12.3,5.0,28.98,NNW,338,0.0,0.0,72,0.00,,,0.00,WUHU216HW,2013-01-21 02:03:00,
2013-01-20 20:08:00,12.3,5.0,28.98,NNW,338,0.0,0.0,72,0.00,,,0.00,WUHU216HW,2013-01-21 02:08:00,
2013-01-20 20:13:00,12.3,5.0,28.98,NNW,338,0.0,0.0,72,0.00,,,0.00,WUHU216HW,2013-01-21 02:13:00,
2013-01-20 20:19:00,12.3,5.3,28.98,NNW,338,0.0,0.0,73,0.00,,,0.00,WUHU216HW,2013-01-21 02:19:00,
2013-01-20 20:24:00,12.5,5.5,28.97,NNW,338,4.4,7.1,73,0.00,,,0.00,WUHU216HW,2013-01-21 02:24:00,
2013-01-20 20:29:00,12.5,5.5,28.97,NNW,338,4.6,7.1,73,0.00,,,0.00,WUHU216HW,2013-01-21 02:29:00,
2013-01-20 20:34:00,12.5,5.5,28.97,NNW,338,7.3,7.3,73,0.00,,,0.00,WUHU216HW,2013-01-21 02:34:00,
2013-01-20 20:39:00,12.5,5.5,28.97,North,0,7.1,7.3,73,0.00,,,0.00,WUHU216HW,2013-01-21 02:39:00,
2013-01-20 20:44:00,12.7,5.6,28.97,North,0,4.0,7.3,73,0.00,,,0.00,WUHU216HW,2013-01-21 02:44:00,
2013-01-20 20:49:00,12.7,5.6,28.98,North,0,6.9,7.3,73,0.00,,,0.00,WUHU216HW,2013-01-21 02:49:00,
2013-01-20 20:54:00,12.9,6.1,28.98,North,0,6.4,8.0,74,0.00,,,0.00,WUHU216HW,2013-01-21 02:54:00,
2013-01-20 20:59:00,13.1,6.3,28.98,North,0,9.6,9.6,74,0.00,,,0.00,WUHU216HW,2013-01-21 02:59:00,
2013-01-20 21:04:00,13.2,6.2,28.98,North,0,9.1,9.6,73,0.00,,,0.00,WUHU216HW,2013-01-21 03:04:00,
2013-01-20 21:09:00,13.2,6.2,28.98,North,0,7.3,9.6,73,0.00,,,0.00,WUHU216HW,2013-01-21 03:09:00,
2013-01-20 21:14:00,13.2,6.2,28.98,North,0,8.2,9.1,73,0.00,,,0.00,WUHU216HW,2013-01-21 03:14:00,
2013-01-20 21:19:00,13.2,6.2,28.98,North,0,8.7,8.7,73,0.00,,,0.00,WUHU216HW,2013-01-21 03:19:00,
2013-01-20 21:24:00,13.2,6.2,28.98,North,0,7.1,8.7,73,0.00,,,0.00,WUHU216HW,2013-01-21 03:24:00,
2013-01-20 21:29:00,13.2,6.2,28.98,North,0,6.4,11.4,73,0.00,,,0.00,WUHU216HW,2013-01-21 03:29:00,
2013-01-20 21:34:00,13.2,6.2,28.98,North,0,7.6,11.4,73,0.00,,,0.00,WUHU216HW,2013-01-21 03:34:00,
2013-01-20 21:39:00,13.2,6.2,28.98,NNE,23,8.0,8.5,73,0.00,,,0.00,WUHU216HW,2013-01-21 03:39:00,
2013-01-20 21:44:00,13.2,6.2,28.98,North,0,8.5,8.5,73,0.00,,,0.00,WUHU216HW,2013-01-21 03:44:00,
2013-01-20 21:50:00,13.2,6.2,28.97,North,0,4.9,8.5,73,0.00,,,0.00,WUHU216HW,2013-01-21 03:50:00,
2013-01-20 21:55:00,13.1,6.0,28.97,North,0,5.8,8.5,73,0.00,,,0.00,WUHU216HW,2013-01-21 03:55:00,
2013-01-20 22:00:00,13.1,6.0,28.97,North,0,6.0,6.0,73,0.00,,,0.00,WUHU216HW,2013-01-21 04:00:00,
2013-01-20 22:05:00,13.1,6.0,28.98,North,0,4.9,6.2,73,0.00,,,0.00,WUHU216HW,2013-01-21 04:05:00,
2013-01-20 22:10:00,12.9,5.5,28.97,North,0,2.9,7.1,72,0.00,,,0.00,WUHU216HW,2013-01-21 04:10:00,
2013-01-20 22:15:00,12.7,5.3,28.97,North,0,0.0,7.1,72,0.00,,,0.00,WUHU216HW,2013-01-21 04:15:00,
2013-01-20 22:20:00,12.7,5.3,28.97,North,0,0.0,1.7,72,0.00,,,0.00,WUHU216HW,2013-01-21 04:20:00,
2013-01-20 22:25:00,12.3,5.0,28.96,North,0,0.0,0.0,72,0.00,,,0.00,WUHU216HW,2013-01-21 04:25:00,
2013-01-20 22:30:00,12.0,4.6,28.97,North,0,0.0,0.0,72,0.00,,,0.00,WUHU216HW,2013-01-21 04:30:00,
2013-01-20 22:35:00,11.8,4.4,28.97,North,0,0.0,0.0,72,0.00,,,0.00,WUHU216HW,2013-01-21 04:35:00,
2013-01-20 22:40:00,11.8,4.4,28.97,North,0,0.0,0.0,72,0.00,,,0.00,WUHU216HW,2013-01-21 04:40:00,
2013-01-20 22:45:00,11.8,4.7,28.97,North,0,0.0,0.0,73,0.00,,,0.00,WUHU216HW,2013-01-21 04:45:00,
2013-01-20 22:51:00,11.4,4.4,28.97,North,0,0.0,0.0,73,0.00,,,0.00,WUHU216HW,2013-01-21 04:51:00,
2013-01-20 22:56:00,11.1,4.0,28.97,North,0,0.0,0.0,73,0.00,,,0.00,WUHU216HW,2013-01-21 04:56:00,
2013-01-20 23:00:00,10.9,3.8,28.97,North,0,0.0,0.0,73,0.00,,,0.00,WUHU216HW,2013-01-21 05:00:00,
2013-01-20 23:01:00,10.9,3.8,28.97,North,0,0.0,0.0,73,0.00,,,0.00,WUHU216HW,2013-01-21 05:01:00,
2013-01-20 23:03:00,10.9,3.8,28.97,North,0,0.0,0.0,73,0.00,,,0.00,WUHU216HW,2013-01-21 05:03:00,
2013-01-20 23:05:00,10.7,3.7,28.97,North,0,0.0,0.0,73,0.00,,,0.00,WUHU216HW,2013-01-21 05:05:00,
2013-01-20 23:10:00,10.5,3.5,28.98,North,0,0.0,0.0,73,0.00,,,0.00,WUHU216HW,2013-01-21 05:10:00,
2013-01-20 23:15:00,10.2,3.1,28.98,North,0,0.0,0.0,73,0.00,,,0.00,WUHU216HW,2013-01-21 05:15:00,
2013-01-20 23:20:00,10.2,3.1,28.97,North,0,0.0,0.0,73,0.00,,,0.00,WUHU216HW,2013-01-21 05:20:00,
2013-01-20 23:25:00,10.2,3.1,28.97,North,0,0.0,0.0,73,0.00,,,0.00,WUHU216HW,2013-01-21 05:25:00,
2013-01-20 23:30:00,10.2,3.1,28.97,North,0,0.0,0.0,73,0.00,,,0.00,WUHU216HW,2013-01-21 05:30:00,
2013-01-20 23:35:00,10.5,3.5,28.97,North,0,0.0,0.0,73,0.00,,,0.00,WUHU216HW,2013-01-21 05:35:00,
2013-01-20 23:40:00,10.5,3.5,28.97,North,0,0.0,0.0,73,0.00,,,0.00,WUHU216HW,2013-01-21 05:40:00,
2013-01-20 23:45:00,10.7,3.7,28.97,North,0,0.0,0.0,73,0.00,,,0.00,WUHU216HW,2013-01-21 05:45:00,
2013-01-20 23:50:00,10.9,3.8,28.97,North,0,0.0,0.0,73,0.00,,,0.00,WUHU216HW,2013-01-21 05:50:00,
2013-01-20 23:55:00,11.1,4.0,28.97,North,0,0.0,0.0,73,0.00,,,0.00,WUHU216HW,2013-01-21 05:55:00,